createdAt,value
2018-03-24T00:00:04.392Z,5.5
2018-03-24T00:15:04.941Z,5.4
2018-03-24T00:30:04.876Z,5.3
2018-03-24T00:45:05.059Z,5.3
2018-03-24T01:00:05.390Z,5.2
2018-03-24T01:15:04.774Z,5.1
2018-03-24T01:30:04.602Z,4.9
2018-03-24T01:45:04.714Z,4.8
2018-03-24T02:00:04.787Z,4.7
2018-03-24T02:15:04.251Z,4.5
2018-03-24T02:30:04.703Z,4.5
2018-03-24T02:45:05.390Z,4.5
2018-03-24T03:00:05.206Z,4.3
2018-03-24T03:15:05.579Z,4.3
2018-03-24T03:30:04.487Z,4.2
2018-03-24T03:45:04.650Z,4.1
2018-03-24T04:00:05.249Z,4.1
2018-03-24T04:15:05.164Z,4.1
2018-03-24T04:30:04.251Z,3.9
2018-03-24T04:45:05.361Z,3.8
2018-03-24T05:00:05.219Z,3.8
2018-03-24T05:15:05.326Z,3.6
2018-03-24T05:30:05.107Z,3.6
2018-03-24T05:45:04.504Z,3.6
2018-03-24T06:00:04.971Z,3.7
2018-03-24T06:15:05.071Z,3.9
2018-03-24T06:30:04.304Z,4.5
2018-03-24T06:45:04.415Z,5.2
2018-03-24T07:00:04.439Z,5.6
2018-03-24T07:15:05.172Z,7.1
2018-03-24T07:30:04.299Z,9.2
2018-03-24T07:45:05.020Z,10.5
2018-03-24T08:00:05.150Z,12.1
2018-03-24T08:15:04.933Z,15.3
2018-03-24T08:30:05.642Z,25.3
2018-03-24T08:45:05.458Z,27.5
2018-03-24T09:00:04.985Z,28.9
2018-03-24T09:15:04.739Z,29.6
2018-03-24T09:30:04.845Z,25.2
2018-03-24T09:45:04.286Z,25.9
2018-03-24T10:00:04.995Z,22.5
2018-03-24T10:15:05.369Z,17
2018-03-24T10:30:05.157Z,15
2018-03-24T10:45:05.049Z,14
2018-03-24T11:00:04.739Z,13.5
2018-03-24T11:15:04.949Z,13.1
2018-03-24T11:30:05.388Z,13.2
2018-03-24T11:45:04.789Z,12.9
2018-03-24T12:00:04.824Z,13
2018-03-24T12:15:04.962Z,13.1
2018-03-24T12:30:04.817Z,13.2
2018-03-24T12:45:04.831Z,13.6
2018-03-24T13:00:04.933Z,13.5
2018-03-24T13:15:04.390Z,13.5
2018-03-24T13:30:05.115Z,13.6
2018-03-24T13:45:04.568Z,13.8
2018-03-24T14:00:04.375Z,14.1
2018-03-24T14:15:04.811Z,14
2018-03-24T14:30:05.016Z,14
2018-03-24T14:45:04.496Z,14.2
2018-03-24T15:00:04.923Z,14.3
2018-03-24T15:15:04.466Z,14.5
2018-03-24T15:30:05.131Z,14.5
2018-03-24T15:45:04.548Z,14.4
2018-03-24T16:00:04.961Z,14.5
2018-03-24T16:15:05.358Z,14.4
2018-03-24T16:30:04.356Z,14.1
2018-03-24T16:45:04.251Z,13.8
2018-03-24T17:00:04.668Z,13.5
2018-03-24T17:15:05.277Z,13.3
2018-03-24T17:30:04.916Z,13.1
2018-03-24T17:45:05.054Z,12.9
2018-03-24T18:00:04.981Z,12.5
2018-03-24T18:15:04.412Z,12.1
2018-03-24T18:30:04.540Z,11.8
2018-03-24T18:45:04.988Z,11.4
2018-03-24T19:00:04.452Z,11
2018-03-24T19:15:04.466Z,10.7
2018-03-24T19:30:05.157Z,10.5
2018-03-24T19:45:04.699Z,10.4
2018-03-24T20:00:05.404Z,10
2018-03-24T20:15:05.205Z,9.8
2018-03-24T20:30:05.057Z,9.7
2018-03-24T20:45:05.725Z,9.4
2018-03-24T21:00:04.751Z,9.3
2018-03-24T21:15:05.202Z,9.1
2018-03-24T21:30:04.938Z,8.9
2018-03-24T21:45:04.385Z,8.9
2018-03-24T22:00:04.422Z,8.5
2018-03-24T22:15:04.300Z,8.5
2018-03-24T22:30:05.085Z,8.1
2018-03-24T22:45:04.560Z,8
2018-03-24T23:00:05.022Z,7.9
2018-03-24T23:15:04.660Z,7.6
2018-03-24T23:30:04.773Z,7.6
2018-03-24T23:45:05.231Z,7.5
